sensor_id;sensor_type;location;lat;lon;timestamp;P1;durP1;ratioP1;P2;durP2;ratioP2
50543;SDS011;41176;44.032;20.900;2022-07-23T17:35:58;7.93;;;5.30;;
50543;SDS011;41176;44.032;20.900;2022-07-23T17:38:23;7.10;;;4.97;;
50543;SDS011;41176;44.032;20.900;2022-07-23T17:40:50;7.47;;;5.10;;
50543;SDS011;41176;44.032;20.900;2022-07-23T17:43:16;6.78;;;4.97;;
50543;SDS011;41176;44.032;20.900;2022-07-23T17:45:43;8.80;;;4.88;;
50543;SDS011;41176;44.032;20.900;2022-07-23T17:48:09;6.95;;;5.13;;
50543;SDS011;41176;44.032;20.900;2022-07-23T17:50:37;7.88;;;5.45;;
50543;SDS011;41176;44.032;20.900;2022-07-23T17:53:04;7.25;;;5.30;;
50543;SDS011;41176;44.032;20.900;2022-07-23T17:55:30;10.88;;;5.53;;
50543;SDS011;41176;44.032;20.900;2022-07-23T17:57:58;8.68;;;5.47;;
50543;SDS011;41176;44.032;20.900;2022-07-23T18:00:28;7.22;;;5.13;;
50543;SDS011;41176;44.032;20.900;2022-07-23T18:02:57;9.00;;;5.85;;
50543;SDS011;41176;44.032;20.900;2022-07-23T18:05:25;11.77;;;5.70;;
50543;SDS011;41176;44.032;20.900;2022-07-23T18:07:51;8.57;;;5.90;;
50543;SDS011;41176;44.032;20.900;2022-07-23T18:10:18;7.28;;;5.22;;
50543;SDS011;41176;44.032;20.900;2022-07-23T18:12:43;7.32;;;5.18;;
50543;SDS011;41176;44.032;20.900;2022-07-23T18:15:09;7.50;;;5.45;;
50543;SDS011;41176;44.032;20.900;2022-07-23T18:17:36;6.57;;;5.30;;
50543;SDS011;41176;44.032;20.900;2022-07-23T18:20:04;9.65;;;5.55;;
50543;SDS011;41176;44.032;20.900;2022-07-23T18:22:31;7.43;;;5.20;;
50543;SDS011;41176;44.032;20.900;2022-07-23T18:24:57;7.78;;;5.70;;
50543;SDS011;41176;44.032;20.900;2022-07-23T18:27:24;8.88;;;5.45;;
50543;SDS011;41176;44.032;20.900;2022-07-23T18:29:50;8.65;;;5.80;;
50543;SDS011;41176;44.032;20.900;2022-07-23T18:32:16;9.65;;;6.45;;
50543;SDS011;41176;44.032;20.900;2022-07-23T18:34:42;11.05;;;6.28;;
50543;SDS011;41176;44.032;20.900;2022-07-23T18:37:08;10.45;;;6.90;;
50543;SDS011;41176;44.032;20.900;2022-07-23T18:39:34;11.18;;;6.63;;
50543;SDS011;41176;44.032;20.900;2022-07-23T18:42:01;8.20;;;5.85;;
50543;SDS011;41176;44.032;20.900;2022-07-23T18:44:33;11.15;;;6.32;;
50543;SDS011;41176;44.032;20.900;2022-07-23T18:47:01;12.65;;;6.35;;
50543;SDS011;41176;44.032;20.900;2022-07-23T18:49:27;10.73;;;6.57;;
50543;SDS011;41176;44.032;20.900;2022-07-23T18:51:53;15.88;;;6.55;;
50543;SDS011;41176;44.032;20.900;2022-07-23T18:54:20;10.77;;;6.47;;
50543;SDS011;41176;44.032;20.900;2022-07-23T18:56:47;10.68;;;8.35;;
50543;SDS011;41176;44.032;20.900;2022-07-23T18:59:13;14.52;;;9.13;;
50543;SDS011;41176;44.032;20.900;2022-07-23T19:01:40;15.25;;;10.27;;
50543;SDS011;41176;44.032;20.900;2022-07-23T19:04:07;16.65;;;10.90;;
50543;SDS011;41176;44.032;20.900;2022-07-23T19:06:32;19.70;;;11.95;;
50543;SDS011;41176;44.032;20.900;2022-07-23T19:08:58;13.23;;;9.95;;
50543;SDS011;41176;44.032;20.900;2022-07-23T19:11:26;11.90;;;8.63;;
50543;SDS011;41176;44.032;20.900;2022-07-23T19:13:53;12.88;;;9.13;;
50543;SDS011;41176;44.032;20.900;2022-07-23T19:16:18;14.93;;;9.20;;
50543;SDS011;41176;44.032;20.900;2022-07-23T19:18:44;15.70;;;8.05;;
50543;SDS011;41176;44.032;20.900;2022-07-23T19:21:10;10.73;;;8.50;;
50543;SDS011;41176;44.032;20.900;2022-07-23T19:23:36;12.30;;;8.07;;
50543;SDS011;41176;44.032;20.900;2022-07-23T19:26:03;18.75;;;8.13;;
50543;SDS011;41176;44.032;20.900;2022-07-23T19:28:30;14.48;;;9.32;;
50543;SDS011;41176;44.032;20.900;2022-07-23T19:30:56;15.75;;;10.70;;
50543;SDS011;41176;44.032;20.900;2022-07-23T19:33:21;15.70;;;10.43;;
50543;SDS011;41176;44.032;20.900;2022-07-23T19:35:48;14.68;;;10.23;;
50543;SDS011;41176;44.032;20.900;2022-07-23T19:38:14;16.45;;;10.63;;
50543;SDS011;41176;44.032;20.900;2022-07-23T19:40:40;16.38;;;9.40;;
50543;SDS011;41176;44.032;20.900;2022-07-23T19:43:07;13.50;;;7.45;;
50543;SDS011;41176;44.032;20.900;2022-07-23T19:45:34;11.27;;;7.57;;
50543;SDS011;41176;44.032;20.900;2022-07-23T19:47:59;11.75;;;7.55;;
50543;SDS011;41176;44.032;20.900;2022-07-23T19:50:28;13.40;;;7.32;;
50543;SDS011;41176;44.032;20.900;2022-07-23T19:52:55;11.85;;;8.00;;
50543;SDS011;41176;44.032;20.900;2022-07-23T19:55:23;10.32;;;7.47;;
50543;SDS011;41176;44.032;20.900;2022-07-23T19:57:49;11.05;;;7.60;;
50543;SDS011;41176;44.032;20.900;2022-07-23T20:00:16;10.15;;;7.45;;
50543;SDS011;41176;44.032;20.900;2022-07-23T20:02:45;11.35;;;6.90;;
50543;SDS011;41176;44.032;20.900;2022-07-23T20:05:11;10.70;;;7.40;;
50543;SDS011;41176;44.032;20.900;2022-07-23T20:07:38;13.77;;;8.15;;
50543;SDS011;41176;44.032;20.900;2022-07-23T20:10:05;8.80;;;6.78;;
50543;SDS011;41176;44.032;20.900;2022-07-23T20:12:33;10.10;;;7.18;;
50543;SDS011;41176;44.032;20.900;2022-07-23T20:15:00;9.27;;;6.72;;
50543;SDS011;41176;44.032;20.900;2022-07-23T20:17:26;8.48;;;6.50;;
50543;SDS011;41176;44.032;20.900;2022-07-23T20:19:52;10.68;;;7.63;;
50543;SDS011;41176;44.032;20.900;2022-07-23T20:22:18;10.43;;;6.82;;
50543;SDS011;41176;44.032;20.900;2022-07-23T20:24:44;12.77;;;7.47;;
50543;SDS011;41176;44.032;20.900;2022-07-23T20:27:10;10.63;;;6.63;;
50543;SDS011;41176;44.032;20.900;2022-07-23T20:29:36;9.55;;;6.75;;
50543;SDS011;41176;44.032;20.900;2022-07-23T20:32:02;9.02;;;7.25;;
50543;SDS011;41176;44.032;20.900;2022-07-23T20:34:28;10.05;;;6.70;;
50543;SDS011;41176;44.032;20.900;2022-07-23T20:36:56;9.07;;;6.93;;
50543;SDS011;41176;44.032;20.900;2022-07-23T20:39:21;9.30;;;6.93;;
50543;SDS011;41176;44.032;20.900;2022-07-23T20:41:48;9.00;;;6.75;;
50543;SDS011;41176;44.032;20.900;2022-07-23T20:44:14;13.85;;;7.03;;
50543;SDS011;41176;44.032;20.900;2022-07-23T20:46:43;10.18;;;7.47;;
50543;SDS011;41176;44.032;20.900;2022-07-23T20:49:10;8.93;;;6.97;;
50543;SDS011;41176;44.032;20.900;2022-07-23T20:51:35;10.90;;;6.93;;
50543;SDS011;41176;44.032;20.900;2022-07-23T20:54:03;9.25;;;6.68;;
50543;SDS011;41176;44.032;20.900;2022-07-23T20:56:29;8.95;;;6.72;;
50543;SDS011;41176;44.032;20.900;2022-07-23T20:58:55;8.75;;;6.55;;
50543;SDS011;41176;44.032;20.900;2022-07-23T21:01:21;10.13;;;6.93;;
50543;SDS011;41176;44.032;20.900;2022-07-23T21:03:46;10.38;;;7.15;;
50543;SDS011;41176;44.032;20.900;2022-07-23T21:06:12;10.38;;;7.13;;
50543;SDS011;41176;44.032;20.900;2022-07-23T21:08:38;7.93;;;6.65;;
50543;SDS011;41176;44.032;20.900;2022-07-23T21:11:04;9.05;;;6.90;;
50543;SDS011;41176;44.032;20.900;2022-07-23T21:13:30;9.25;;;7.10;;
50543;SDS011;41176;44.032;20.900;2022-07-23T21:15:55;9.98;;;7.43;;
50543;SDS011;41176;44.032;20.900;2022-07-23T21:18:21;9.27;;;6.63;;
50543;SDS011;41176;44.032;20.900;2022-07-23T21:20:47;10.63;;;7.05;;
50543;SDS011;41176;44.032;20.900;2022-07-23T21:23:31;10.68;;;7.03;;
50543;SDS011;41176;44.032;20.900;2022-07-23T21:25:57;10.00;;;7.20;;
50543;SDS011;41176;44.032;20.900;2022-07-23T21:28:23;10.80;;;6.97;;
50543;SDS011;41176;44.032;20.900;2022-07-23T21:30:49;9.38;;;6.70;;
50543;SDS011;41176;44.032;20.900;2022-07-23T21:33:15;10.38;;;7.70;;
50543;SDS011;41176;44.032;20.900;2022-07-23T21:35:41;9.02;;;7.22;;
50543;SDS011;41176;44.032;20.900;2022-07-23T21:38:07;10.55;;;7.78;;
50543;SDS011;41176;44.032;20.900;2022-07-23T21:40:32;11.75;;;7.63;;
50543;SDS011;41176;44.032;20.900;2022-07-23T21:42:58;11.18;;;7.60;;
50543;SDS011;41176;44.032;20.900;2022-07-23T21:45:24;10.23;;;6.88;;
50543;SDS011;41176;44.032;20.900;2022-07-23T21:47:50;11.05;;;7.55;;
50543;SDS011;41176;44.032;20.900;2022-07-23T21:50:16;10.13;;;7.00;;
50543;SDS011;41176;44.032;20.900;2022-07-23T21:52:45;9.35;;;7.15;;
50543;SDS011;41176;44.032;20.900;2022-07-23T21:55:11;9.00;;;7.13;;
50543;SDS011;41176;44.032;20.900;2022-07-23T21:57:37;10.82;;;7.22;;
50543;SDS011;41176;44.032;20.900;2022-07-23T22:00:07;8.88;;;6.72;;
50543;SDS011;41176;44.032;20.900;2022-07-23T22:02:47;8.57;;;6.68;;
50543;SDS011;41176;44.032;20.900;2022-07-23T22:05:21;8.73;;;7.00;;
50543;SDS011;41176;44.032;20.900;2022-07-23T22:07:53;10.80;;;7.03;;
50543;SDS011;41176;44.032;20.900;2022-07-23T22:10:19;9.20;;;6.68;;
50543;SDS011;41176;44.032;20.900;2022-07-23T22:12:45;9.55;;;6.85;;
50543;SDS011;41176;44.032;20.900;2022-07-23T22:15:12;10.32;;;6.78;;
50543;SDS011;41176;44.032;20.900;2022-07-23T22:17:40;12.60;;;7.15;;
50543;SDS011;41176;44.032;20.900;2022-07-23T22:20:09;10.75;;;7.53;;
50543;SDS011;41176;44.032;20.900;2022-07-23T22:22:40;8.65;;;6.53;;
50543;SDS011;41176;44.032;20.900;2022-07-23T22:25:10;10.05;;;6.90;;
50543;SDS011;41176;44.032;20.900;2022-07-23T22:27:37;8.93;;;7.05;;
50543;SDS011;41176;44.032;20.900;2022-07-23T22:30:07;11.25;;;7.45;;
50543;SDS011;41176;44.032;20.900;2022-07-23T22:32:34;7.63;;;6.65;;
50543;SDS011;41176;44.032;20.900;2022-07-23T22:35:00;8.75;;;6.72;;
50543;SDS011;41176;44.032;20.900;2022-07-23T22:37:25;10.35;;;7.32;;
50543;SDS011;41176;44.032;20.900;2022-07-23T22:39:51;8.32;;;6.88;;
50543;SDS011;41176;44.032;20.900;2022-07-23T22:42:17;10.13;;;7.47;;
50543;SDS011;41176;44.032;20.900;2022-07-23T22:44:43;10.38;;;7.35;;
50543;SDS011;41176;44.032;20.900;2022-07-23T22:47:12;13.25;;;8.00;;
50543;SDS011;41176;44.032;20.900;2022-07-23T22:49:37;11.95;;;7.30;;
50543;SDS011;41176;44.032;20.900;2022-07-23T22:52:03;9.45;;;6.88;;
50543;SDS011;41176;44.032;20.900;2022-07-23T22:54:29;7.88;;;6.97;;
50543;SDS011;41176;44.032;20.900;2022-07-23T22:56:56;8.85;;;7.22;;
50543;SDS011;41176;44.032;20.900;2022-07-23T22:59:22;11.32;;;7.10;;
50543;SDS011;41176;44.032;20.900;2022-07-23T23:01:47;9.05;;;7.00;;
50543;SDS011;41176;44.032;20.900;2022-07-23T23:04:16;10.25;;;7.20;;
50543;SDS011;41176;44.032;20.900;2022-07-23T23:06:42;8.77;;;7.00;;
50543;SDS011;41176;44.032;20.900;2022-07-23T23:09:08;9.30;;;7.10;;
50543;SDS011;41176;44.032;20.900;2022-07-23T23:11:33;10.02;;;6.88;;
50543;SDS011;41176;44.032;20.900;2022-07-23T23:13:59;9.98;;;6.90;;
50543;SDS011;41176;44.032;20.900;2022-07-23T23:16:25;7.82;;;6.57;;
50543;SDS011;41176;44.032;20.900;2022-07-23T23:18:50;10.05;;;7.45;;
50543;SDS011;41176;44.032;20.900;2022-07-23T23:21:16;9.20;;;6.70;;
50543;SDS011;41176;44.032;20.900;2022-07-23T23:23:42;9.63;;;7.15;;
50543;SDS011;41176;44.032;20.900;2022-07-23T23:26:08;8.65;;;6.75;;
50543;SDS011;41176;44.032;20.900;2022-07-23T23:28:35;10.20;;;7.20;;
50543;SDS011;41176;44.032;20.900;2022-07-23T23:31:01;8.98;;;7.22;;
50543;SDS011;41176;44.032;20.900;2022-07-23T23:33:28;8.93;;;6.97;;
50543;SDS011;41176;44.032;20.900;2022-07-23T23:35:54;10.98;;;7.18;;
50543;SDS011;41176;44.032;20.900;2022-07-23T23:38:19;10.18;;;7.30;;
50543;SDS011;41176;44.032;20.900;2022-07-23T23:40:45;8.70;;;7.32;;
50543;SDS011;41176;44.032;20.900;2022-07-23T23:43:11;9.13;;;7.00;;
50543;SDS011;41176;44.032;20.900;2022-07-23T23:45:37;9.60;;;7.13;;
50543;SDS011;41176;44.032;20.900;2022-07-23T23:48:04;10.98;;;7.50;;
50543;SDS011;41176;44.032;20.900;2022-07-23T23:50:31;10.15;;;6.85;;
50543;SDS011;41176;44.032;20.900;2022-07-23T23:52:57;8.77;;;6.57;;
50543;SDS011;41176;44.032;20.900;2022-07-23T23:55:23;11.75;;;6.68;;
50543;SDS011;41176;44.032;20.900;2022-07-23T23:57:49;7.88;;;6.35;;
